createdAt,value
2017-12-13T00:00:28.326Z,3.59
2017-12-13T00:02:56.049Z,3.53
2017-12-13T00:05:23.654Z,3.55
2017-12-13T00:07:51.301Z,3.51
2017-12-13T00:10:19.034Z,3.49
2017-12-13T00:12:46.723Z,3.50
2017-12-13T00:15:14.400Z,3.51
2017-12-13T00:17:42.195Z,3.50
2017-12-13T00:20:09.873Z,3.49
2017-12-13T00:22:37.570Z,3.48
2017-12-13T00:25:05.242Z,3.48
2017-12-13T00:27:32.886Z,3.44
2017-12-13T00:30:00.478Z,3.41
2017-12-13T00:32:28.169Z,3.36
2017-12-13T00:34:55.839Z,3.36
2017-12-13T00:37:23.534Z,3.28
2017-12-13T00:39:51.135Z,3.23
2017-12-13T00:42:18.826Z,3.13
2017-12-13T00:44:46.491Z,3.10
2017-12-13T00:47:14.174Z,3.14
2017-12-13T00:49:41.834Z,3.09
2017-12-13T00:52:09.566Z,3.06
2017-12-13T00:54:37.213Z,3.06
2017-12-13T00:57:04.874Z,3.01
2017-12-13T00:59:32.545Z,2.92
2017-12-13T01:02:00.262Z,2.88
2017-12-13T01:04:27.984Z,2.72
2017-12-13T01:06:55.689Z,2.61
2017-12-13T01:09:23.420Z,2.53
2017-12-13T01:11:51.100Z,2.52
2017-12-13T01:14:18.791Z,2.49
2017-12-13T01:16:46.462Z,2.51
2017-12-13T01:19:14.190Z,2.64
2017-12-13T01:21:41.848Z,2.69
2017-12-13T01:24:09.487Z,2.72
2017-12-13T01:26:37.092Z,2.60
2017-12-13T01:29:04.728Z,2.52
2017-12-13T01:31:32.443Z,2.49
2017-12-13T01:34:00.365Z,2.47
2017-12-13T01:36:28.136Z,2.48
2017-12-13T01:38:55.906Z,2.41
2017-12-13T01:41:23.562Z,2.33
2017-12-13T01:43:51.263Z,2.32
2017-12-13T01:46:18.927Z,2.40
2017-12-13T01:48:46.609Z,2.46
2017-12-13T01:51:14.271Z,2.52
2017-12-13T01:53:41.958Z,2.52
2017-12-13T01:56:09.731Z,2.54
2017-12-13T01:58:37.418Z,2.54
2017-12-13T02:01:05.124Z,2.51
2017-12-13T02:03:32.825Z,2.56
2017-12-13T02:06:00.478Z,2.60
2017-12-13T02:08:28.218Z,2.59
2017-12-13T02:10:55.891Z,2.60
2017-12-13T02:13:23.587Z,2.62
2017-12-13T02:15:51.250Z,2.67
2017-12-13T02:18:18.982Z,2.66
2017-12-13T02:20:46.642Z,2.61
2017-12-13T02:23:14.339Z,2.63
2017-12-13T02:25:42.010Z,2.63
2017-12-13T02:28:09.705Z,2.58
2017-12-13T02:30:37.371Z,2.48
2017-12-13T02:33:05.063Z,2.51
2017-12-13T02:35:32.740Z,2.43
2017-12-13T02:38:00.440Z,2.36
2017-12-13T02:40:39.755Z,2.32
2017-12-13T02:43:07.464Z,2.25
2017-12-13T02:45:35.137Z,2.27
2017-12-13T02:48:02.877Z,2.27
2017-12-13T02:50:30.490Z,2.32
2017-12-13T02:52:58.183Z,2.46
2017-12-13T02:55:25.840Z,2.59
2017-12-13T02:57:53.511Z,2.70
2017-12-13T03:00:21.254Z,2.77
2017-12-13T03:02:48.994Z,2.77
2017-12-13T03:05:16.649Z,2.80
2017-12-13T03:07:44.354Z,2.81
2017-12-13T03:10:12.031Z,2.84
2017-12-13T03:12:39.669Z,2.84
2017-12-13T03:15:07.366Z,2.78
2017-12-13T03:17:35.022Z,2.70
2017-12-13T03:20:02.795Z,2.67
2017-12-13T03:22:31.158Z,2.66
2017-12-13T03:24:58.854Z,2.66
2017-12-13T03:27:26.519Z,2.70
2017-12-13T03:29:54.326Z,2.66
2017-12-13T03:32:21.983Z,2.61
2017-12-13T03:34:49.841Z,2.63
2017-12-13T03:37:17.506Z,2.63
2017-12-13T03:39:45.183Z,2.62
2017-12-13T03:42:12.839Z,2.66
2017-12-13T03:44:40.538Z,2.65
2017-12-13T03:47:08.195Z,2.67
2017-12-13T03:49:35.873Z,2.69
2017-12-13T03:52:03.666Z,2.73
2017-12-13T03:54:31.414Z,2.72
2017-12-13T03:56:59.038Z,2.74
2017-12-13T03:59:26.710Z,2.72
2017-12-13T04:01:54.397Z,2.75
2017-12-13T04:04:22.086Z,2.75
2017-12-13T04:06:49.778Z,2.73
2017-12-13T04:09:17.435Z,2.77
2017-12-13T04:11:45.128Z,2.75
2017-12-13T04:14:12.795Z,2.74
2017-12-13T04:16:40.540Z,2.71
2017-12-13T04:19:08.203Z,2.67
2017-12-13T04:21:35.885Z,2.68
2017-12-13T04:24:03.562Z,2.69
2017-12-13T04:26:31.258Z,2.73
2017-12-13T04:28:58.917Z,2.71
2017-12-13T04:31:26.600Z,2.76
2017-12-13T04:33:54.270Z,2.77
2017-12-13T04:36:21.973Z,2.78
2017-12-13T04:38:49.633Z,2.77
2017-12-13T04:41:17.356Z,2.77
2017-12-13T04:43:45.023Z,2.83
2017-12-13T04:46:12.687Z,2.93
2017-12-13T04:48:40.410Z,2.93
2017-12-13T04:51:08.070Z,2.94
2017-12-13T04:53:35.759Z,2.89
2017-12-13T04:56:03.409Z,2.89
2017-12-13T04:58:31.178Z,2.96
2017-12-13T05:00:58.840Z,2.97
2017-12-13T05:03:26.530Z,3.01
2017-12-13T05:05:54.206Z,3.06
2017-12-13T05:08:21.898Z,3.08
2017-12-13T05:10:49.561Z,3.14
2017-12-13T05:13:17.261Z,3.16
2017-12-13T05:15:44.923Z,3.21
2017-12-13T05:18:12.617Z,3.26
2017-12-13T05:20:40.274Z,3.31
2017-12-13T05:23:07.951Z,3.33
2017-12-13T05:25:35.612Z,3.37
2017-12-13T05:28:03.323Z,3.34
2017-12-13T05:30:31.008Z,3.32
2017-12-13T05:32:58.693Z,3.36
2017-12-13T05:35:26.403Z,3.37
2017-12-13T05:37:54.086Z,3.36
2017-12-13T05:40:21.802Z,3.36
2017-12-13T05:42:49.449Z,3.34
2017-12-13T05:45:17.141Z,3.36
2017-12-13T05:47:44.818Z,3.36
2017-12-13T05:50:12.513Z,3.36
2017-12-13T05:52:40.171Z,3.35
2017-12-13T05:55:07.880Z,3.37
2017-12-13T05:57:35.551Z,3.41
2017-12-13T06:00:03.255Z,3.43
2017-12-13T06:02:30.922Z,3.43
2017-12-13T06:04:58.622Z,3.43
2017-12-13T06:07:26.290Z,3.42
2017-12-13T06:09:53.974Z,3.43
2017-12-13T06:12:21.637Z,3.42
2017-12-13T06:14:49.334Z,3.44
2017-12-13T06:17:16.999Z,3.44
2017-12-13T06:19:44.705Z,3.47
2017-12-13T06:22:12.379Z,3.48
2017-12-13T06:24:40.073Z,3.47
2017-12-13T06:27:07.742Z,3.44
2017-12-13T06:29:35.451Z,3.46
2017-12-13T06:32:03.122Z,3.50
2017-12-13T06:34:30.815Z,3.52
2017-12-13T06:36:58.562Z,3.52
2017-12-13T06:39:26.323Z,3.52
2017-12-13T06:41:53.982Z,3.54
2017-12-13T06:44:21.712Z,3.57
2017-12-13T06:46:49.374Z,3.57
2017-12-13T06:49:17.059Z,3.68
2017-12-13T06:51:44.721Z,3.64
2017-12-13T06:54:12.420Z,3.67
2017-12-13T06:56:40.275Z,3.65
2017-12-13T06:59:07.964Z,3.69
2017-12-13T07:01:35.631Z,3.78
2017-12-13T07:04:03.324Z,3.95
2017-12-13T07:06:30.906Z,4.09
2017-12-13T07:08:58.550Z,4.25
2017-12-13T07:11:26.187Z,4.36
2017-12-13T07:13:53.801Z,4.45
2017-12-13T07:16:21.454Z,4.50
2017-12-13T07:18:49.054Z,4.51
2017-12-13T07:21:16.656Z,4.53
2017-12-13T07:23:44.267Z,4.57
2017-12-13T07:26:11.878Z,4.61
2017-12-13T07:28:39.522Z,4.64
2017-12-13T07:31:07.189Z,4.64
2017-12-13T07:33:34.822Z,4.69
2017-12-13T07:36:02.404Z,4.72
2017-12-13T07:38:30.051Z,4.71
2017-12-13T07:40:57.638Z,4.71
2017-12-13T07:43:25.218Z,4.72
2017-12-13T07:45:52.853Z,4.75
2017-12-13T07:48:20.458Z,4.76
2017-12-13T07:50:48.072Z,4.77
2017-12-13T07:53:15.674Z,4.78
2017-12-13T07:55:43.283Z,4.87
2017-12-13T07:58:10.902Z,4.90
2017-12-13T08:00:38.515Z,4.93
2017-12-13T08:03:06.178Z,4.93
2017-12-13T08:05:33.785Z,4.95
2017-12-13T08:08:01.387Z,4.97
2017-12-13T08:10:29.019Z,4.99
2017-12-13T08:12:56.606Z,5.02
2017-12-13T08:15:24.223Z,5.06
2017-12-13T08:17:51.834Z,5.08
2017-12-13T08:20:19.482Z,5.13
2017-12-13T08:22:47.124Z,5.15
2017-12-13T08:25:14.797Z,5.18
2017-12-13T08:27:42.364Z,5.20
2017-12-13T08:30:09.966Z,5.21
2017-12-13T08:32:37.589Z,5.21
2017-12-13T08:40:52.394Z,5.24
2017-12-13T08:43:20.408Z,5.24
2017-12-13T08:51:16.662Z,5.25
2017-12-13T08:59:11.725Z,5.23
2017-12-13T09:04:18.448Z,5.25
2017-12-13T09:06:54.878Z,5.22
2017-12-13T09:09:52.601Z,5.19
2017-12-13T09:12:20.762Z,5.16
2017-12-13T09:14:52.474Z,5.14
2017-12-13T09:17:22.904Z,5.08
2017-12-13T09:19:51.260Z,5.06
2017-12-13T09:22:53.023Z,5.05
2017-12-13T09:25:20.904Z,5.06
2017-12-13T09:27:48.933Z,5.03
2017-12-13T09:30:16.737Z,5.06
2017-12-13T09:32:45.218Z,5.06
2017-12-13T09:35:13.242Z,5.07
2017-12-13T09:37:41.144Z,5.03
2017-12-13T09:40:09.505Z,5.02
2017-12-13T09:42:37.579Z,4.98
2017-12-13T09:45:05.498Z,4.94
2017-12-13T09:47:33.351Z,4.88
2017-12-13T09:50:01.303Z,4.88
2017-12-13T09:52:29.478Z,4.88
2017-12-13T09:54:57.281Z,4.84
2017-12-13T09:57:25.314Z,4.83
2017-12-13T09:59:53.186Z,4.81
2017-12-13T10:02:20.923Z,4.83
2017-12-13T10:04:48.535Z,4.82
2017-12-13T10:07:16.142Z,4.83
2017-12-13T10:09:43.930Z,4.78
2017-12-13T10:12:12.882Z,4.75
2017-12-13T10:14:40.888Z,4.72
2017-12-13T10:17:08.584Z,4.69
2017-12-13T10:19:36.276Z,4.68
2017-12-13T10:22:03.938Z,4.67
2017-12-13T10:24:31.595Z,4.69
2017-12-13T10:26:59.278Z,4.67
2017-12-13T10:29:26.894Z,4.68
2017-12-13T10:31:54.636Z,4.67
2017-12-13T10:34:22.788Z,4.69
2017-12-13T10:36:50.960Z,4.70
2017-12-13T10:39:19.090Z,4.71
2017-12-13T10:41:46.898Z,4.74
2017-12-13T10:44:14.486Z,4.77
2017-12-13T10:46:42.122Z,4.79
2017-12-13T10:49:09.721Z,4.85
2017-12-13T10:51:37.362Z,4.89
2017-12-13T10:54:04.902Z,4.93
2017-12-13T10:56:32.537Z,5.02
2017-12-13T10:59:00.149Z,5.07
2017-12-13T11:01:27.769Z,5.18
2017-12-13T11:03:55.355Z,5.25
2017-12-13T11:06:23.011Z,5.34
2017-12-13T11:08:50.608Z,5.39
2017-12-13T11:11:18.214Z,5.42
2017-12-13T11:13:45.815Z,5.46
2017-12-13T11:16:13.405Z,5.43
2017-12-13T11:18:41.027Z,5.44
2017-12-13T11:21:08.630Z,5.48
2017-12-13T11:23:36.252Z,5.50
2017-12-13T11:26:03.882Z,5.50
2017-12-13T11:28:31.566Z,5.51
2017-12-13T11:30:59.127Z,5.51
2017-12-13T11:33:26.759Z,5.53
2017-12-13T11:35:54.351Z,5.53
2017-12-13T11:38:21.962Z,5.53
2017-12-13T11:40:49.538Z,5.54
2017-12-13T11:43:17.135Z,5.56
2017-12-13T11:45:44.793Z,5.55
2017-12-13T11:48:12.352Z,5.60
2017-12-13T11:50:40.020Z,5.66
2017-12-13T11:53:07.602Z,5.67
2017-12-13T11:55:35.218Z,5.71
2017-12-13T11:58:02.812Z,5.74
2017-12-13T12:00:30.443Z,5.77
2017-12-13T12:02:58.039Z,5.79
2017-12-13T12:05:25.654Z,5.78
2017-12-13T12:07:53.265Z,5.78
2017-12-13T12:10:20.870Z,5.78
2017-12-13T12:12:48.435Z,5.84
2017-12-13T12:15:16.120Z,5.85
2017-12-13T12:17:43.728Z,5.85
2017-12-13T12:20:11.359Z,5.90
2017-12-13T12:22:38.987Z,5.96
2017-12-13T12:25:06.636Z,5.96
2017-12-13T12:27:34.267Z,5.94
2017-12-13T12:30:01.886Z,5.94
2017-12-13T12:32:29.515Z,5.98
2017-12-13T12:34:57.148Z,6.02
2017-12-13T12:37:24.770Z,6.07
2017-12-13T12:39:52.403Z,6.09
2017-12-13T12:42:20.033Z,6.09
2017-12-13T12:44:47.627Z,6.17
2017-12-13T12:47:15.263Z,6.21
2017-12-13T12:49:42.918Z,6.23
2017-12-13T12:52:10.530Z,6.24
2017-12-13T12:54:38.127Z,6.22
2017-12-13T12:57:05.816Z,6.21
2017-12-13T12:59:33.408Z,6.19
2017-12-13T13:02:00.989Z,6.23
2017-12-13T13:04:28.606Z,6.20
2017-12-13T13:06:56.228Z,6.18
2017-12-13T13:09:23.878Z,6.18
2017-12-13T13:11:51.501Z,6.13
2017-12-13T13:14:19.094Z,6.07
2017-12-13T13:16:46.727Z,6.03
2017-12-13T13:19:14.350Z,5.94
2017-12-13T13:21:41.942Z,5.85
2017-12-13T13:24:09.577Z,5.81
2017-12-13T13:26:37.155Z,5.74
2017-12-13T13:29:04.766Z,5.69
2017-12-13T13:31:32.363Z,5.64
2017-12-13T13:33:59.971Z,5.62
2017-12-13T13:36:27.541Z,5.60
2017-12-13T13:38:55.159Z,5.58
2017-12-13T13:41:22.770Z,5.56
2017-12-13T13:43:50.418Z,5.56
2017-12-13T13:46:18.010Z,5.54
2017-12-13T13:48:45.654Z,5.50
2017-12-13T13:51:13.254Z,5.48
2017-12-13T13:53:40.848Z,5.50
2017-12-13T13:56:08.470Z,5.46
2017-12-13T13:58:36.146Z,5.45
2017-12-13T14:01:03.751Z,5.44
2017-12-13T14:03:31.358Z,5.42
2017-12-13T14:05:58.968Z,5.40
2017-12-13T14:08:26.606Z,5.35
2017-12-13T14:10:54.199Z,5.34
2017-12-13T14:13:21.779Z,5.32
2017-12-13T14:15:49.406Z,5.32
2017-12-13T14:18:17.008Z,5.31
2017-12-13T14:20:44.628Z,5.31
2017-12-13T14:23:12.248Z,5.30
2017-12-13T14:25:39.962Z,5.29
2017-12-13T14:28:07.576Z,5.26
2017-12-13T14:30:35.178Z,5.29
2017-12-13T14:33:02.791Z,5.28
2017-12-13T14:35:30.406Z,5.28
2017-12-13T14:37:58.039Z,5.29
2017-12-13T14:40:25.619Z,5.28
2017-12-13T14:42:53.196Z,5.30
2017-12-13T14:45:20.806Z,5.32
2017-12-13T14:47:48.396Z,5.29
2017-12-13T14:50:16.106Z,5.29
2017-12-13T14:52:43.683Z,5.31
2017-12-13T14:55:11.298Z,5.31
2017-12-13T14:57:38.874Z,5.33
2017-12-13T15:00:06.551Z,5.33
2017-12-13T15:02:34.149Z,5.34
2017-12-13T15:05:01.831Z,5.38
2017-12-13T15:07:29.410Z,5.39
2017-12-13T15:09:57.035Z,5.37
2017-12-13T15:12:24.630Z,5.37
2017-12-13T15:14:52.294Z,5.38
2017-12-13T15:17:19.887Z,5.40
2017-12-13T15:19:47.520Z,5.39
2017-12-13T15:22:15.199Z,5.37
2017-12-13T15:24:42.815Z,5.39
2017-12-13T15:27:10.552Z,5.43
2017-12-13T15:29:38.180Z,5.42
2017-12-13T15:32:05.761Z,5.40
2017-12-13T15:34:33.455Z,5.39
2017-12-13T15:37:01.012Z,5.39
2017-12-13T15:39:28.625Z,5.42
2017-12-13T15:41:56.208Z,5.41
2017-12-13T15:44:23.840Z,5.43
2017-12-13T15:46:51.426Z,5.43
2017-12-13T15:49:19.074Z,5.45
2017-12-13T15:51:46.666Z,5.46
2017-12-13T15:54:14.446Z,5.47
2017-12-13T15:56:42.063Z,5.48
2017-12-13T15:59:09.690Z,5.48
2017-12-13T16:01:37.387Z,5.50
2017-12-13T16:04:05.011Z,5.54
2017-12-13T16:06:32.598Z,5.52
2017-12-13T16:09:00.210Z,5.52
2017-12-13T16:11:27.802Z,5.52
2017-12-13T16:13:55.428Z,5.55
2017-12-13T16:16:23.027Z,5.55
2017-12-13T16:18:50.675Z,5.54
2017-12-13T16:21:18.335Z,5.56
2017-12-13T16:23:45.996Z,5.56
2017-12-13T16:26:13.594Z,5.56
2017-12-13T16:28:41.239Z,5.58
2017-12-13T16:31:08.838Z,5.59
2017-12-13T16:33:36.474Z,5.62
2017-12-13T16:36:04.066Z,5.64
2017-12-13T16:38:31.773Z,5.66
2017-12-13T16:40:59.373Z,5.67
2017-12-13T16:43:27.062Z,5.69
2017-12-13T16:45:54.634Z,5.69
2017-12-13T16:48:22.253Z,5.72
2017-12-13T16:50:49.844Z,5.77
2017-12-13T16:53:17.466Z,5.78
2017-12-13T16:55:45.115Z,5.76
2017-12-13T16:58:12.759Z,5.76
2017-12-13T17:00:40.476Z,5.73
2017-12-13T17:03:08.102Z,5.75
2017-12-13T17:05:35.682Z,5.71
2017-12-13T17:08:03.287Z,5.73
2017-12-13T17:10:30.863Z,5.74
2017-12-13T17:12:58.568Z,5.72
2017-12-13T17:15:26.159Z,5.68
2017-12-13T17:17:53.743Z,5.62
2017-12-13T17:20:21.362Z,5.57
2017-12-13T17:22:48.998Z,5.54
2017-12-13T17:25:16.583Z,5.52
2017-12-13T17:27:44.294Z,5.52
2017-12-13T17:30:11.927Z,5.52
2017-12-13T17:32:39.513Z,5.50
2017-12-13T17:35:07.135Z,5.50
2017-12-13T17:37:34.741Z,5.47
2017-12-13T17:40:02.384Z,5.47
2017-12-13T17:42:30.008Z,5.47
2017-12-13T17:44:57.788Z,5.48
2017-12-13T17:47:25.421Z,5.51
2017-12-13T17:49:53.020Z,5.51
2017-12-13T17:52:20.606Z,5.49
2017-12-13T17:54:48.296Z,5.50
2017-12-13T17:57:15.895Z,5.50
2017-12-13T17:59:43.541Z,5.50
2017-12-13T18:02:11.126Z,5.49
2017-12-13T18:04:38.734Z,5.49
2017-12-13T18:07:06.369Z,5.52
2017-12-13T18:09:33.987Z,5.50
2017-12-13T18:12:01.614Z,5.53
2017-12-13T18:14:29.243Z,5.54
2017-12-13T18:16:56.853Z,5.54
2017-12-13T18:19:24.451Z,5.55
2017-12-13T18:21:52.101Z,5.56
2017-12-13T18:24:19.722Z,5.55
2017-12-13T18:26:47.323Z,5.57
2017-12-13T18:29:14.986Z,5.60
2017-12-13T18:31:42.716Z,5.64
2017-12-13T18:34:10.445Z,5.63
2017-12-13T18:36:38.067Z,5.65
2017-12-13T18:39:07.257Z,5.66
2017-12-13T18:41:34.940Z,5.66
2017-12-13T18:44:02.564Z,5.65
2017-12-13T18:46:30.145Z,5.63
2017-12-13T18:48:57.741Z,5.62
2017-12-13T18:51:25.375Z,5.62
2017-12-13T18:53:52.967Z,5.61
2017-12-13T18:56:20.577Z,5.62
2017-12-13T18:58:48.195Z,5.65
2017-12-13T19:01:15.826Z,5.68
2017-12-13T19:03:43.405Z,5.71
2017-12-13T19:06:11.018Z,5.74
2017-12-13T19:08:38.701Z,5.76
2017-12-13T19:11:06.326Z,5.80
2017-12-13T19:13:33.918Z,5.83
2017-12-13T19:16:01.555Z,5.85
2017-12-13T19:18:29.154Z,5.88
2017-12-13T19:20:56.775Z,5.87
2017-12-13T19:23:24.364Z,5.91
2017-12-13T19:25:52.013Z,5.95
2017-12-13T19:28:19.627Z,6.00
2017-12-13T19:30:47.277Z,6.02
2017-12-13T19:33:14.868Z,6.05
2017-12-13T19:35:42.483Z,6.07
2017-12-13T19:38:10.082Z,6.09
2017-12-13T19:40:37.722Z,6.10
2017-12-13T19:43:05.330Z,6.10
2017-12-13T19:45:32.983Z,6.10
2017-12-13T19:48:00.567Z,6.11
2017-12-13T19:50:28.172Z,6.15
2017-12-13T19:52:55.782Z,6.17
2017-12-13T19:55:23.413Z,6.18
2017-12-13T19:57:51.051Z,6.16
2017-12-13T20:00:18.699Z,6.18
2017-12-13T20:02:46.309Z,6.21
2017-12-13T20:05:13.986Z,6.22
2017-12-13T20:07:41.567Z,6.26
2017-12-13T20:10:09.189Z,6.29
2017-12-13T20:12:36.790Z,6.33
2017-12-13T20:15:19.945Z,6.36
2017-12-13T20:17:47.602Z,6.38
2017-12-13T20:20:15.264Z,6.41
2017-12-13T20:22:42.855Z,6.44
2017-12-13T20:25:10.492Z,6.45
2017-12-13T20:27:38.106Z,6.48
2017-12-13T20:30:05.779Z,6.47
2017-12-13T20:32:33.422Z,6.48
2017-12-13T20:35:01.056Z,6.47
2017-12-13T20:37:28.639Z,6.49
2017-12-13T20:39:56.372Z,6.53
2017-12-13T20:42:23.984Z,6.57
2017-12-13T20:44:51.623Z,6.61
2017-12-13T20:47:19.247Z,6.65
2017-12-13T20:49:46.882Z,6.62
2017-12-13T20:52:14.492Z,6.63
2017-12-13T20:54:42.089Z,6.64
2017-12-13T20:57:09.883Z,6.66
2017-12-13T20:59:38.574Z,6.69
2017-12-13T21:02:08.309Z,6.72
2017-12-13T21:04:35.910Z,6.74
2017-12-13T21:07:03.493Z,6.76
2017-12-13T21:09:31.135Z,6.80
2017-12-13T21:11:58.758Z,6.84
2017-12-13T21:14:26.419Z,6.86
2017-12-13T21:16:53.998Z,6.85
2017-12-13T21:19:21.611Z,6.83
2017-12-13T21:21:49.250Z,6.86
2017-12-13T21:24:16.855Z,6.88
2017-12-13T21:26:44.470Z,6.83
2017-12-13T21:29:12.068Z,6.80
2017-12-13T21:31:39.682Z,6.79
2017-12-13T21:34:07.285Z,6.79
2017-12-13T21:36:34.950Z,6.81
2017-12-13T21:39:02.653Z,6.81
2017-12-13T21:41:30.270Z,6.78
2017-12-13T21:43:57.884Z,6.77
2017-12-13T21:46:25.559Z,6.79
2017-12-13T21:48:53.136Z,6.85
2017-12-13T21:51:20.830Z,6.90
2017-12-13T21:53:48.446Z,6.97
2017-12-13T21:56:16.050Z,7.06
2017-12-13T21:58:43.642Z,7.09
2017-12-13T22:01:11.267Z,7.12
2017-12-13T22:03:38.847Z,7.14
2017-12-13T22:06:06.563Z,7.17
2017-12-13T22:08:34.142Z,7.17
2017-12-13T22:11:01.783Z,7.23
2017-12-13T22:13:29.370Z,7.37
2017-12-13T22:15:56.982Z,7.48
2017-12-13T22:18:24.734Z,7.60
2017-12-13T22:20:52.350Z,7.70
2017-12-13T22:23:19.963Z,7.71
2017-12-13T22:25:47.619Z,7.68
2017-12-13T22:28:15.194Z,7.63
2017-12-13T22:30:42.842Z,7.63
2017-12-13T22:33:10.470Z,7.63
2017-12-13T22:35:38.055Z,7.58
2017-12-13T22:38:05.671Z,7.54
2017-12-13T22:40:33.414Z,7.53
2017-12-13T22:43:01.069Z,7.52
2017-12-13T22:45:28.662Z,7.46
2017-12-13T22:47:56.268Z,7.42
2017-12-13T22:50:23.887Z,7.41
2017-12-13T22:52:51.530Z,7.39
2017-12-13T22:55:19.127Z,7.34
2017-12-13T22:57:46.742Z,7.29
2017-12-13T23:00:14.334Z,7.24
2017-12-13T23:02:42.046Z,7.21
2017-12-13T23:05:09.640Z,7.23
2017-12-13T23:07:37.251Z,7.21
2017-12-13T23:10:04.915Z,7.16
2017-12-13T23:12:32.579Z,7.15
2017-12-13T23:15:00.323Z,7.12
2017-12-13T23:17:28.127Z,7.07
2017-12-13T23:19:55.715Z,7.05
2017-12-13T23:22:23.329Z,7.03
2017-12-13T23:24:50.958Z,7.02
2017-12-13T23:27:18.545Z,7.01
2017-12-13T23:29:46.153Z,7.01
2017-12-13T23:32:13.759Z,7.01
2017-12-13T23:34:41.391Z,7.06
2017-12-13T23:37:08.968Z,7.03
2017-12-13T23:39:36.574Z,7.01
2017-12-13T23:42:04.143Z,6.98
2017-12-13T23:44:31.766Z,7.00
2017-12-13T23:46:59.351Z,6.96
2017-12-13T23:49:26.970Z,6.90
2017-12-13T23:51:54.666Z,6.89
2017-12-13T23:54:22.282Z,6.89
2017-12-13T23:56:49.860Z,6.87
2017-12-13T23:59:17.476Z,6.87
